Saturday, October 20, 2018, 9:50 PM EDT
Back to Local

KPNE, N.e. Philadelphia Airport

Location: Philadelphia, PA, United States Lat: 40.083
Local Time: 9:50 PM EDT ( 1:50 GMT) Lon: -75.017
Time Zone: US/Eastern Elev: 121 ft

Show me the last for .
Show Decoded

2018-10-20 20:54 METAR KPNE 210054Z 00000KT 10SM CLR 12/08 A2964 RMK AO2 SLP037 T01170078 =
2018-10-20 19:54 METAR KPNE 202354Z 00000KT 10SM CLR 13/08 A2965 RMK AO2 SLP039 T01280083 10194
                 20128 55000 =
2018-10-20 18:54 METAR KPNE 202254Z 24003KT 10SM FEW080 15/07 A2964 RMK AO2 SLP038 T01500072 =
2018-10-20 17:54 METAR KPNE 202154Z 27007KT 10SM FEW080 17/07 A2965 RMK AO2 SLP040 T01670072 =
2018-10-20 16:54 METAR KPNE 202054Z 28009KT 10SM BKN080 18/08 A2965 RMK AO2 SLP039 T01780078
                 56024 =
2018-10-20 15:54 METAR KPNE 201954Z 29007KT 10SM FEW042 SCT055 BKN070 19/09 A2966 RMK AO2 SLP045
                 T01890094 =
2018-10-20 14:54 METAR KPNE 201854Z 27012KT 10SM FEW039 BKN070 18/08 A2968 RMK AO2 SLP050
                 T01830083 =
2018-10-20 13:54 METAR KPNE 201754Z 27009KT 10SM FEW043 17/10 A2972 RMK AO2 SLP063 T01720100
                 10183 20139 58018 =
2018-10-20 12:54 METAR KPNE 201654Z 27012G17KT 10SM BKN045 18/11 A2975 RMK AO2 SLP072 T01830106 =
2018-10-20 12:41 METAR KPNE 201641Z 29012KT 10SM SCT029 OVC043 18/11 A2975 RMK AO2 T01780106 =
2018-10-20 11:54 METAR KPNE 201554Z 28010KT 10SM BKN027 BKN037 17/11 A2978 RMK AO2 SLP082
                 T01720106 =
2018-10-20 11:40 METAR KPNE 201540Z 30011KT 10SM BKN025 BKN031 17/11 A2978 RMK AO2 T01720111 =
2018-10-20 10:54 METAR KPNE 201454Z 25009KT 10SM FEW016 17/12 A2977 RMK AO2 SLP081 T01670117
                 58006 =
2018-10-20 09:54 METAR KPNE 201354Z 24006KT 10SM SCT011 OVC065 15/12 A2979 RMK AO2 SLP089
                 T01500122 =
2018-10-20 09:38 METAR KPNE 201338Z 25005KT 10SM SCT010 OVC060 15/12 A2979 RMK AO2 T01500122 =
2018-10-20 09:13 METAR KPNE 201313Z 24008KT 10SM BKN011 BKN049 OVC060 14/12 A2981 RMK AO2
                 T01440122 =
2018-10-20 08:54 METAR KPNE 201254Z 26006KT 10SM FEW011 OVC046 14/12 A2980 RMK AO2 SLP090
                 T01440122 =
2018-10-20 07:54 METAR KPNE 201154Z 23010KT 10SM SCT011 OVC045 14/12 A2979 RMK AO2 SLP087 60008
                 70008 T01390117 10144 20128 55007 =
2018-10-20 06:54 METAR KPNE 201054Z 21008KT 10SM OVC046 14/11 A2978 RMK AO2 SLP082 T01390111 =
2018-10-20 05:54 METAR KPNE 200954Z 22007KT 10SM OVC055 13/11 A2979 RMK AO2 RAE45 SLP087 P0002
                 T01330111 =
2018-10-20 04:54 METAR KPNE 200854Z 21005KT 8SM -RA FEW070 OVC100 13/11 A2981 RMK AO2 RAB04
                 SLP095 P0004 60006 T01330111 56025 =
2018-10-20 03:54 METAR KPNE 200754Z 21004KT 10SM OVC080 13/10 A2983 RMK AO2 RAE27 SLP099 P0000
                 T01330100 =
2018-10-20 02:54 METAR KPNE 200654Z VRB05KT 10SM -RA OVC095 14/09 A2985 RMK AO2 SLP109 P0002
                 T01390094 =
2018-10-20 01:54 METAR KPNE 200554Z 22006KT 10SM -RA BKN110 14/09 A2989 RMK AO2 RAB34 SLP120
                 P0000 60000 T01440089 10156 20144 56027 =
2018-10-20 00:54 METAR KPNE 200454Z 22006KT 10SM OVC110 16/07 A2990 RMK AO2 SLP124 T01560072
                 401720028 =
2018-10-19 23:54 METAR KPNE 200354Z 21008KT 10SM BKN110 15/07 A2993 RMK AO2 SLP133 T01500072 =
2018-10-19 22:54 METAR KPNE 200254Z 22010G19KT 10SM FEW120 15/07 A2997 RMK AO2 SLP148 T01500067
                 58026 =
2018-10-19 21:54 METAR KPNE 200154Z 21009KT 10SM CLR 15/06 A3001 RMK AO2 SLP161 T01500061 =

Support USWX by starting your Amazon purchase here.